Time;durP1;ratioP1;P1;durP2;ratioP2;P2;SDS_P1;SDS_P2;PMS_P1;PMS_P2;Temp;Humidity;BMP_temperature;BMP_pressure;BME280_temperature;BME280_humidity;BME280_pressure;Samples;Min_cycle;Max_cycle;Signal;HPM_P1;HPM_P2
2022/03/03 00:01:44;;;;;;;;;;;-4.00;99.90;;;;;;5070907;28;19916;-73
2022/03/03 00:04:09;;;;;;;;;;;-4.00;99.90;;;;;;5071280;28;20347;-73
2022/03/03 00:06:35;;;;;;;;;;;-4.00;99.90;;;;;;5074603;28;19913;-73
2022/03/03 00:09:02;;;;;;;;;;;-4.10;99.90;;;;;;5074223;28;19951;-73
2022/03/03 00:11:27;;;;;;;;;;;-4.00;99.90;;;;;;5074793;28;19919;-73
2022/03/03 00:13:53;;;;;;;;;;;-4.00;99.90;;;;;;5075653;28;19912;-73
2022/03/03 00:16:18;;;;;;;;;;;-3.90;99.90;;;;;;5072991;28;19922;-73
2022/03/03 00:18:44;;;;;;;;;;;-4.00;99.90;;;;;;5078557;28;19944;-73
2022/03/03 00:21:09;;;;;;;;;;;-4.10;99.90;;;;;;5074321;28;20304;-73
2022/03/03 00:23:35;;;;;;;;;;;-4.10;99.90;;;;;;5074018;28;20391;-74
2022/03/03 00:26:00;;;;;;;;;;;-4.20;99.90;;;;;;5074291;28;19909;-73
2022/03/03 00:28:26;;;;;;;;;;;-4.20;99.90;;;;;;5074133;28;19959;-74
2022/03/03 00:30:52;;;;;;;;;;;-4.20;99.90;;;;;;5074133;28;19971;-73
2022/03/03 00:33:17;;;;;;;;;;;-4.30;99.90;;;;;;5073593;28;19919;-73
2022/03/03 00:35:43;;;;;;;;;;;-4.10;99.90;;;;;;5074179;28;19912;-73
2022/03/03 00:38:09;;;;;;;;;;;-4.00;99.90;;;;;;5073880;28;19908;-73
2022/03/03 00:40:34;;;;;;;;;;;-4.00;99.90;;;;;;5074102;28;19915;-74
2022/03/03 00:43:00;;;;;;;;;;;-4.20;99.90;;;;;;5073775;28;19909;-74
2022/03/03 00:45:26;;;;;;;;;;;-4.30;99.90;;;;;;5071121;28;20289;-74
2022/03/03 00:47:51;;;;;;;;;;;-4.30;99.90;;;;;;5074117;28;19970;-73
2022/03/03 00:50:17;;;;;;;;;;;-4.50;99.90;;;;;;5072506;28;19912;-73
2022/03/03 00:52:42;;;;;;;;;;;-4.70;99.90;;;;;;5073596;28;19920;-73
2022/03/03 00:55:08;;;;;;;;;;;-4.60;99.90;;;;;;5073541;28;20281;-74
2022/03/03 00:57:34;;;;;;;;;;;-4.60;99.90;;;;;;5072291;28;19913;-73
2022/03/03 01:00:00;;;;;;;;;;;-4.60;99.90;;;;;;5073708;28;20352;-73
2022/03/03 01:02:25;;;;;;;;;;;-4.60;99.90;;;;;;5073488;28;20007;-73
2022/03/03 01:04:51;;;;;;;;;;;-4.60;99.90;;;;;;5072072;28;19952;-74
2022/03/03 01:07:16;;;;;;;;;;;-4.60;99.90;;;;;;5073440;28;19916;-74
2022/03/03 01:09:42;;;;;;;;;;;-4.50;99.90;;;;;;5073504;28;19928;-73
2022/03/03 01:12:08;;;;;;;;;;;-4.60;99.90;;;;;;5073212;28;19916;-73
2022/03/03 01:14:33;;;;;;;;;;;-4.50;99.90;;;;;;5073081;28;19948;-73
2022/03/03 01:16:59;;;;;;;;;;;-4.50;99.90;;;;;;5073299;28;19923;-73
2022/03/03 01:19:24;;;;;;;;;;;-4.60;99.90;;;;;;5073010;28;20356;-73
2022/03/03 01:21:50;;;;;;;;;;;-4.60;99.90;;;;;;5074237;28;20384;-74
2022/03/03 01:24:15;;;;;;;;;;;-4.70;99.90;;;;;;5072943;28;19915;-73
2022/03/03 01:26:41;;;;;;;;;;;-4.60;99.90;;;;;;5073165;28;19909;-73
2022/03/03 01:29:06;;;;;;;;;;;-4.60;99.90;;;;;;5073003;28;20422;-73
2022/03/03 01:31:32;;;;;;;;;;;-4.70;99.90;;;;;;5072891;28;20268;-73
2022/03/03 01:33:57;;;;;;;;;;;-4.60;99.90;;;;;;5071252;28;19909;-73
2022/03/03 01:36:23;;;;;;;;;;;-4.50;99.90;;;;;;5073035;28;19915;-73
2022/03/03 01:38:48;;;;;;;;;;;-4.60;99.90;;;;;;5072828;28;19908;-73
2022/03/03 01:41:14;;;;;;;;;;;-4.60;99.90;;;;;;5071385;28;19916;-73
2022/03/03 01:43:39;;;;;;;;;;;-4.70;99.90;;;;;;5072583;28;19953;-73
2022/03/03 01:46:05;;;;;;;;;;;-4.70;99.90;;;;;;5069408;28;19915;-73
2022/03/03 01:48:30;;;;;;;;;;;-4.60;99.90;;;;;;5072485;28;19970;-73
2022/03/03 01:50:56;;;;;;;;;;;-4.70;99.90;;;;;;5072605;28;20315;-73
2022/03/03 01:53:22;;;;;;;;;;;-4.70;99.90;;;;;;5072296;28;20005;-73
2022/03/03 01:55:49;;;;;;;;;;;-4.50;99.90;;;;;;5071364;28;19908;-73
2022/03/03 01:58:15;;;;;;;;;;;-4.10;99.90;;;;;;5070366;28;19908;-73
2022/03/03 02:00:42;;;;;;;;;;;-3.80;99.90;;;;;;5072571;28;20289;-73
2022/03/03 02:03:08;;;;;;;;;;;-3.50;99.90;;;;;;5071968;28;20432;-73
2022/03/03 02:05:33;;;;;;;;;;;-3.60;99.90;;;;;;5072435;28;19951;-73
2022/03/03 02:07:59;;;;;;;;;;;-3.70;99.90;;;;;;5072342;28;19956;-73
2022/03/03 02:10:24;;;;;;;;;;;-3.50;99.90;;;;;;5072171;28;19913;-74
2022/03/03 02:12:50;;;;;;;;;;;-3.40;99.90;;;;;;5070781;28;20282;-73
2022/03/03 02:15:19;;;;;;;;;;;-3.20;99.90;;;;;;5067779;28;20444;-73
2022/03/03 02:17:45;;;;;;;;;;;-3.10;99.90;;;;;;5069845;28;19916;-73
2022/03/03 02:20:24;;;;;;;;;;;-3.20;99.90;;;;;;5072125;28;19909;-73
2022/03/03 02:22:50;;;;;;;;;;;-3.30;99.90;;;;;;5072129;28;19916;-73
2022/03/03 02:25:17;;;;;;;;;;;-3.40;99.90;;;;;;5071110;28;20078;-74
2022/03/03 02:27:43;;;;;;;;;;;-3.70;99.90;;;;;;5071116;28;19912;-73
2022/03/03 02:30:09;;;;;;;;;;;-4.10;99.90;;;;;;5071756;28;19909;-73
2022/03/03 02:32:35;;;;;;;;;;;-4.30;99.90;;;;;;5071562;28;20454;-73
2022/03/03 02:35:00;;;;;;;;;;;-4.50;99.90;;;;;;5071710;28;19908;-73
2022/03/03 02:37:33;;;;;;;;;;;-4.60;99.90;;;;;;5071817;28;19965;-73
2022/03/03 02:39:58;;;;;;;;;;;-4.70;99.90;;;;;;5071838;28;19954;-73
2022/03/03 02:42:24;;;;;;;;;;;-4.60;99.90;;;;;;5073070;28;19908;-73
2022/03/03 02:44:49;;;;;;;;;;;-4.60;99.90;;;;;;5071534;28;19920;-73
2022/03/03 02:47:15;;;;;;;;;;;-4.60;99.90;;;;;;5073395;28;19957;-73
2022/03/03 02:49:40;;;;;;;;;;;-4.70;99.90;;;;;;5071798;28;19912;-73
2022/03/03 02:52:06;;;;;;;;;;;-4.70;99.90;;;;;;5071476;28;19912;-73
2022/03/03 02:54:31;;;;;;;;;;;-4.90;99.90;;;;;;5071280;28;19908;-73
2022/03/03 02:59:41;;;;;;;;;;;-4.90;99.90;;;;;;5072002;28;20277;-73
2022/03/03 03:02:07;;;;;;;;;;;-4.90;99.90;;;;;;5071683;28;19909;-74
2022/03/03 03:04:32;;;;;;;;;;;-4.90;99.90;;;;;;5073076;28;20361;-73
2022/03/03 03:06:58;;;;;;;;;;;-5.00;99.90;;;;;;5071996;28;19908;-74
2022/03/03 03:09:23;;;;;;;;;;;-5.00;99.90;;;;;;5072759;28;19920;-73
2022/03/03 03:11:49;;;;;;;;;;;-5.00;99.90;;;;;;5071232;28;19916;-74
2022/03/03 03:14:14;;;;;;;;;;;-5.00;99.90;;;;;;5071143;28;19931;-74
2022/03/03 03:16:40;;;;;;;;;;;-4.90;99.90;;;;;;5071005;28;19968;-73
2022/03/03 03:19:05;;;;;;;;;;;-4.90;99.90;;;;;;5075561;28;19951;-73
2022/03/03 03:21:30;;;;;;;;;;;-5.00;99.90;;;;;;5071289;28;19915;-72
2022/03/03 03:23:56;;;;;;;;;;;-4.90;99.90;;;;;;5071064;28;20369;-72
2022/03/03 03:26:22;;;;;;;;;;;-4.90;99.90;;;;;;5071345;28;20007;-73
2022/03/03 03:28:47;;;;;;;;;;;-5.00;99.90;;;;;;5071425;28;19912;-73
2022/03/03 03:31:12;;;;;;;;;;;-5.20;99.90;;;;;;5071040;28;19916;-73
2022/03/03 03:33:38;;;;;;;;;;;-5.20;99.90;;;;;;5069594;28;19915;-73
2022/03/03 03:36:04;;;;;;;;;;;-5.20;99.90;;;;;;5071321;28;19966;-73
2022/03/03 03:38:29;;;;;;;;;;;-5.30;99.90;;;;;;5072087;28;19915;-73
2022/03/03 03:40:55;;;;;;;;;;;-5.40;99.90;;;;;;5075140;28;19909;-73
2022/03/03 03:43:20;;;;;;;;;;;-5.30;99.90;;;;;;5074744;28;19913;-73
2022/03/03 03:45:46;;;;;;;;;;;-5.30;99.90;;;;;;5072427;28;19932;-73
2022/03/03 03:48:11;;;;;;;;;;;-5.30;99.90;;;;;;5074780;28;19908;-73
2022/03/03 03:50:37;;;;;;;;;;;-5.30;99.90;;;;;;5075014;28;19912;-73
2022/03/03 03:53:02;;;;;;;;;;;-5.20;99.90;;;;;;5074396;28;20405;-73
2022/03/03 03:55:28;;;;;;;;;;;-5.20;99.90;;;;;;5074655;28;19915;-73
2022/03/03 03:57:53;;;;;;;;;;;-5.30;99.90;;;;;;5074862;28;19908;-73
2022/03/03 04:00:19;;;;;;;;;;;-5.30;99.90;;;;;;5072893;28;20274;-73
2022/03/03 04:02:45;;;;;;;;;;;-5.10;99.90;;;;;;5074782;28;20011;-73
2022/03/03 04:05:11;;;;;;;;;;;-5.00;99.90;;;;;;5074560;28;19956;-73
2022/03/03 04:07:37;;;;;;;;;;;-5.10;99.90;;;;;;5074630;28;20300;-73
2022/03/03 04:10:03;;;;;;;;;;;-5.20;99.90;;;;;;5074652;28;19916;-73
2022/03/03 04:12:28;;;;;;;;;;;-5.30;99.90;;;;;;5074313;28;19912;-73
2022/03/03 04:14:54;;;;;;;;;;;-5.50;99.90;;;;;;5072866;28;20277;-73
2022/03/03 04:17:19;;;;;;;;;;;-5.50;99.90;;;;;;5073964;28;19973;-73
2022/03/03 04:19:45;;;;;;;;;;;-5.60;99.90;;;;;;5074520;28;19912;-73
2022/03/03 04:22:10;;;;;;;;;;;-5.50;99.90;;;;;;5074239;28;20304;-73
2022/03/03 04:24:36;;;;;;;;;;;-5.50;99.90;;;;;;5073950;28;20008;-73
2022/03/03 04:27:01;;;;;;;;;;;-5.40;99.90;;;;;;5074327;28;19909;-73
2022/03/03 04:29:27;;;;;;;;;;;-5.40;99.90;;;;;;5074191;28;19944;-73
2022/03/03 04:31:53;;;;;;;;;;;-5.50;99.90;;;;;;5073966;28;19919;-73
2022/03/03 04:34:19;;;;;;;;;;;-5.60;99.90;;;;;;5081059;28;19983;-73
2022/03/03 04:36:45;;;;;;;;;;;-5.50;99.90;;;;;;5084803;28;19909;-73
2022/03/03 04:39:10;;;;;;;;;;;-5.50;99.90;;;;;;5075044;28;19908;-73
2022/03/03 04:41:36;;;;;;;;;;;-5.50;99.90;;;;;;5073856;28;20316;-73
2022/03/03 04:44:01;;;;;;;;;;;-5.60;99.90;;;;;;5073763;28;19909;-73
2022/03/03 04:46:27;;;;;;;;;;;-5.60;99.90;;;;;;5072454;28;19912;-73
2022/03/03 04:48:52;;;;;;;;;;;-5.50;99.90;;;;;;5071434;28;20255;-72
2022/03/03 04:51:18;;;;;;;;;;;-5.50;99.90;;;;;;5073572;28;19913;-73
2022/03/03 04:53:43;;;;;;;;;;;-5.50;99.90;;;;;;5072225;28;19913;-72
2022/03/03 04:56:09;;;;;;;;;;;-5.40;99.90;;;;;;5072411;28;19912;-72
2022/03/03 04:58:34;;;;;;;;;;;-5.40;99.90;;;;;;5073681;28;19983;-72
2022/03/03 05:01:00;;;;;;;;;;;-5.40;99.90;;;;;;5073714;28;19995;-73
2022/03/03 05:03:26;;;;;;;;;;;-5.50;99.90;;;;;;5073405;28;20369;-72
2022/03/03 05:05:51;;;;;;;;;;;-5.60;99.90;;;;;;5072475;28;19958;-72
2022/03/03 05:08:16;;;;;;;;;;;-5.60;99.90;;;;;;5073623;28;19919;-73
2022/03/03 05:10:42;;;;;;;;;;;-5.50;99.90;;;;;;5073825;28;19915;-72
2022/03/03 05:13:08;;;;;;;;;;;-5.60;99.90;;;;;;5073632;28;20312;-73
2022/03/03 05:15:34;;;;;;;;;;;-5.60;99.90;;;;;;5071858;28;19920;-73
2022/03/03 05:18:00;;;;;;;;;;;-5.60;99.90;;;;;;5073730;28;19912;-73
2022/03/03 05:20:25;;;;;;;;;;;-5.70;99.90;;;;;;5073506;28;20354;-73
2022/03/03 05:22:51;;;;;;;;;;;-5.60;99.90;;;;;;5073008;28;19982;-73
2022/03/03 05:25:16;;;;;;;;;;;-5.70;99.90;;;;;;5072719;28;20365;-73
2022/03/03 05:27:42;;;;;;;;;;;-5.70;99.90;;;;;;5071896;28;19982;-73
2022/03/03 05:30:09;;;;;;;;;;;-5.80;99.90;;;;;;5071818;28;19908;-73
2022/03/03 05:32:36;;;;;;;;;;;-5.90;99.90;;;;;;5072891;28;19956;-73
2022/03/03 05:35:02;;;;;;;;;;;-5.70;99.90;;;;;;5072821;28;19908;-73
2022/03/03 05:37:27;;;;;;;;;;;-5.70;99.90;;;;;;5072833;28;20365;-73
2022/03/03 05:39:53;;;;;;;;;;;-5.90;99.90;;;;;;5072991;28;19909;-73
2022/03/03 05:42:20;;;;;;;;;;;-5.80;99.90;;;;;;5072792;28;19961;-73
2022/03/03 05:44:48;;;;;;;;;;;-5.60;99.90;;;;;;5071078;28;19912;-73
2022/03/03 05:47:14;;;;;;;;;;;-5.50;99.90;;;;;;5069804;28;20387;-73
2022/03/03 05:49:43;;;;;;;;;;;-5.50;99.90;;;;;;5072631;28;19991;-73
2022/03/03 05:52:09;;;;;;;;;;;-5.40;99.90;;;;;;5072373;28;19970;-73
2022/03/03 05:54:35;;;;;;;;;;;-5.50;99.90;;;;;;5072428;28;19912;-72
2022/03/03 05:57:01;;;;;;;;;;;-5.40;99.90;;;;;;5072553;28;19931;-73
2022/03/03 05:59:29;;;;;;;;;;;-5.30;99.90;;;;;;5072657;28;19908;-72
2022/03/03 06:01:55;;;;;;;;;;;-5.20;99.90;;;;;;5071796;28;19908;-72
2022/03/03 06:04:24;;;;;;;;;;;-5.10;99.90;;;;;;5072272;28;19909;-72
2022/03/03 06:06:54;;;;;;;;;;;-5.40;99.90;;;;;;5071797;28;20619;-72
2022/03/03 06:09:23;;;;;;;;;;;-5.40;99.90;;;;;;5069365;28;19908;-73
2022/03/03 06:11:50;;;;;;;;;;;-5.60;99.90;;;;;;5072379;28;19912;-72
2022/03/03 06:14:19;;;;;;;;;;;-5.60;99.90;;;;;;5072139;28;19954;-72
2022/03/03 06:16:45;;;;;;;;;;;-5.70;99.90;;;;;;5070577;28;19916;-72
2022/03/03 06:19:10;;;;;;;;;;;-5.70;99.90;;;;;;5080192;28;19926;-72
2022/03/03 06:21:36;;;;;;;;;;;-5.80;99.90;;;;;;5071998;28;19920;-72
2022/03/03 06:24:02;;;;;;;;;;;-5.70;99.90;;;;;;5070587;28;19916;-72
2022/03/03 06:26:27;;;;;;;;;;;-5.70;99.90;;;;;;5072333;28;20405;-72
2022/03/03 06:28:53;;;;;;;;;;;-5.80;99.90;;;;;;5072713;28;19912;-72
2022/03/03 06:31:18;;;;;;;;;;;-5.80;99.90;;;;;;5072469;28;19997;-73
2022/03/03 06:33:44;;;;;;;;;;;-5.70;99.90;;;;;;5072244;28;19908;-72
2022/03/03 06:36:10;;;;;;;;;;;-5.50;99.90;;;;;;5072313;28;19909;-72
2022/03/03 06:38:35;;;;;;;;;;;-5.40;99.90;;;;;;5071006;28;19915;-72
2022/03/03 06:41:02;;;;;;;;;;;-5.40;99.90;;;;;;5072406;28;19944;-73
2022/03/03 06:43:29;;;;;;;;;;;-5.50;99.90;;;;;;5072135;28;19909;-72
2022/03/03 06:45:58;;;;;;;;;;;-5.30;99.90;;;;;;5074215;28;19908;-72
2022/03/03 06:48:24;;;;;;;;;;;-5.20;99.90;;;;;;5071810;28;20373;-72
2022/03/03 06:50:50;;;;;;;;;;;-5.20;99.90;;;;;;5072010;28;19966;-72
2022/03/03 06:53:17;;;;;;;;;;;-5.20;99.90;;;;;;5068593;28;19921;-72
2022/03/03 06:55:44;;;;;;;;;;;-5.10;99.90;;;;;;5071493;28;20384;-72
2022/03/03 06:58:10;;;;;;;;;;;-4.80;99.90;;;;;;5073037;28;19962;-72
2022/03/03 07:00:35;;;;;;;;;;;-4.90;99.90;;;;;;5072536;28;19909;-72
2022/03/03 07:03:01;;;;;;;;;;;-4.80;99.90;;;;;;5071745;28;20019;-73
2022/03/03 07:05:34;;;;;;;;;;;-4.60;99.90;;;;;;5072213;28;20458;-72
2022/03/03 07:07:59;;;;;;;;;;;-4.30;99.90;;;;;;5072145;28;20002;-72
2022/03/03 07:10:25;;;;;;;;;;;-4.00;99.90;;;;;;5067552;28;19947;-73
2022/03/03 07:12:55;;;;;;;;;;;-3.80;99.90;;;;;;5072545;28;19919;-73
2022/03/03 07:15:21;;;;;;;;;;;-3.80;99.90;;;;;;5054871;28;19908;-73
2022/03/03 07:17:49;;;;;;;;;;;-4.00;99.90;;;;;;5071912;28;19912;-73
2022/03/03 07:20:17;;;;;;;;;;;-4.00;99.90;;;;;;5073336;28;19909;-73
2022/03/03 07:22:45;;;;;;;;;;;-3.80;99.90;;;;;;5072383;28;19970;-73
2022/03/03 07:25:12;;;;;;;;;;;-3.20;99.90;;;;;;5072190;28;19962;-73
2022/03/03 07:27:45;;;;;;;;;;;-2.90;99.90;;;;;;5069845;28;19928;-73
2022/03/03 07:30:15;;;;;;;;;;;-2.60;99.90;;;;;;5062900;28;19958;-73
2022/03/03 07:32:43;;;;;;;;;;;-2.30;99.90;;;;;;5068522;28;20387;-73
2022/03/03 07:35:14;;;;;;;;;;;-2.10;99.90;;;;;;5071970;28;19916;-73
2022/03/03 07:37:59;;;;;;;;;;;-2.10;99.90;;;;;;5061631;28;19913;-73
2022/03/03 07:40:29;;;;;;;;;;;-2.20;99.90;;;;;;5064430;28;19912;-73
2022/03/03 07:42:55;;;;;;;;;;;-2.20;99.90;;;;;;5068894;28;20316;-73
2022/03/03 07:45:20;;;;;;;;;;;-2.10;99.90;;;;;;5055662;28;20231;-73
2022/03/03 07:47:50;;;;;;;;;;;-1.90;99.90;;;;;;5066331;28;20464;-73
2022/03/03 07:50:15;;;;;;;;;;;-1.70;99.90;;;;;;5070143;28;19909;-73
2022/03/03 07:52:43;;;;;;;;;;;-1.50;99.90;;;;;;5070594;28;20285;-73
2022/03/03 07:55:08;;;;;;;;;;;-1.20;99.90;;;;;;5070506;28;19908;-73
2022/03/03 07:57:37;;;;;;;;;;;-1.00;99.90;;;;;;5065140;28;19949;-73
2022/03/03 08:00:06;;;;;;;;;;;-0.90;99.90;;;;;;5061569;28;19912;-73
2022/03/03 08:02:32;;;;;;;;;;;-0.90;99.90;;;;;;5069100;28;19909;-73
2022/03/03 08:05:00;;;;;;;;;;;-0.70;99.90;;;;;;5069725;28;19952;-73
2022/03/03 08:07:26;;;;;;;;;;;-0.70;99.90;;;;;;5071274;28;19908;-73
2022/03/03 08:09:55;;;;;;;;;;;-0.40;99.90;;;;;;5069915;28;20367;-73
2022/03/03 08:12:21;;;;;;;;;;;-0.30;99.90;;;;;;5065179;28;20019;-73
2022/03/03 08:14:47;;;;;;;;;;;-0.10;99.90;;;;;;5070792;28;20046;-73
2022/03/03 08:17:14;;;;;;;;;;;0.10;99.90;;;;;;5071185;28;19964;-73
2022/03/03 08:19:40;;;;;;;;;;;0.30;99.90;;;;;;5069268;28;19920;-73
2022/03/03 08:22:06;;;;;;;;;;;0.60;99.90;;;;;;5069491;28;19920;-72
2022/03/03 08:24:33;;;;;;;;;;;1.20;99.90;;;;;;5070641;28;20353;-73
2022/03/03 08:27:01;;;;;;;;;;;3.60;99.90;;;;;;5074918;28;19909;-73
2022/03/03 08:29:26;;;;;;;;;;;5.60;95.60;;;;;;5069678;28;20289;-73
2022/03/03 08:31:53;;;;;;;;;;;6.70;91.60;;;;;;5076379;28;19912;-74
2022/03/03 08:34:26;;;;;;;;;;;7.80;90.00;;;;;;5077934;28;20358;-72
2022/03/03 08:36:54;;;;;;;;;;;9.20;82.20;;;;;;5074323;28;19924;-72
2022/03/03 08:39:23;;;;;;;;;;;10.20;75.80;;;;;;5079044;28;19908;-73
2022/03/03 08:41:51;;;;;;;;;;;10.00;74.60;;;;;;5068148;28;19912;-72
2022/03/03 08:44:16;;;;;;;;;;;10.20;74.40;;;;;;5076131;28;19952;-73
2022/03/03 08:46:42;;;;;;;;;;;11.10;71.00;;;;;;5075645;28;19931;-72
2022/03/03 08:49:09;;;;;;;;;;;11.60;66.70;;;;;;5079554;28;19913;-73
2022/03/03 08:51:35;;;;;;;;;;;11.20;66.70;;;;;;5079338;28;19965;-73
2022/03/03 08:54:01;;;;;;;;;;;10.60;67.20;;;;;;5079512;28;19909;-73
2022/03/03 08:56:26;;;;;;;;;;;11.20;67.50;;;;;;5080207;28;19962;-73
2022/03/03 08:58:52;;;;;;;;;;;11.50;66.60;;;;;;5080852;28;19932;-72
2022/03/03 09:01:18;;;;;;;;;;;12.20;66.30;;;;;;5078181;28;19919;-72
2022/03/03 09:03:44;;;;;;;;;;;12.90;64.00;;;;;;5079852;28;19912;-72
2022/03/03 09:06:13;;;;;;;;;;;13.20;63.30;;;;;;5082498;28;19919;-72
2022/03/03 09:08:39;;;;;;;;;;;13.20;62.40;;;;;;5081652;28;19954;-72
2022/03/03 09:11:04;;;;;;;;;;;13.50;61.70;;;;;;5079792;28;20258;-72
2022/03/03 09:13:30;;;;;;;;;;;13.10;61.80;;;;;;5078174;28;19916;-73
2022/03/03 09:15:55;;;;;;;;;;;13.30;60.60;;;;;;5078588;28;19917;-71
2022/03/03 09:18:21;;;;;;;;;;;13.30;60.80;;;;;;5074044;28;19915;-73
2022/03/03 09:20:47;;;;;;;;;;;13.10;61.80;;;;;;5074870;28;19912;-73
2022/03/03 09:23:12;;;;;;;;;;;13.40;60.90;;;;;;5074144;28;19915;-73
2022/03/03 09:25:39;;;;;;;;;;;13.80;58.80;;;;;;5072637;28;19912;-73
2022/03/03 09:28:05;;;;;;;;;;;14.60;56.40;;;;;;5077015;28;19951;-73
2022/03/03 09:30:31;;;;;;;;;;;14.60;57.50;;;;;;5073445;28;19971;-74
2022/03/03 09:32:57;;;;;;;;;;;14.50;55.90;;;;;;5077060;28;19964;-73
2022/03/03 09:35:22;;;;;;;;;;;15.20;56.20;;;;;;5078863;28;19912;-74
2022/03/03 09:37:48;;;;;;;;;;;15.10;54.20;;;;;;5079040;28;19908;-73
2022/03/03 09:40:13;;;;;;;;;;;16.00;53.50;;;;;;5078007;28;19916;-73
2022/03/03 09:42:39;;;;;;;;;;;16.40;52.70;;;;;;5078949;28;19954;-74
2022/03/03 09:45:05;;;;;;;;;;;17.00;52.40;;;;;;5077632;28;19948;-74
2022/03/03 09:47:33;;;;;;;;;;;17.00;49.70;;;;;;5076012;28;19999;-73
2022/03/03 09:50:00;;;;;;;;;;;17.20;51.00;;;;;;5079517;28;19934;-74
2022/03/03 09:52:25;;;;;;;;;;;17.60;50.90;;;;;;5078879;28;19920;-74
2022/03/03 09:54:54;;;;;;;;;;;16.90;49.50;;;;;;5078523;28;20332;-74
2022/03/03 09:57:20;;;;;;;;;;;16.80;51.80;;;;;;5078600;28;19908;-74
2022/03/03 09:59:46;;;;;;;;;;;16.80;51.00;;;;;;5071407;28;19908;-74
2022/03/03 10:02:12;;;;;;;;;;;17.50;51.80;;;;;;5076841;28;19916;-73
2022/03/03 10:04:38;;;;;;;;;;;18.00;50.10;;;;;;5074218;28;19946;-74
2022/03/03 10:07:05;;;;;;;;;;;17.50;50.40;;;;;;5069909;28;19956;-74
2022/03/03 10:09:30;;;;;;;;;;;17.50;50.60;;;;;;5069677;28;20003;-74
2022/03/03 10:12:06;;;;;;;;;;;18.60;49.70;;;;;;5073036;28;20388;-74
2022/03/03 10:14:33;;;;;;;;;;;18.20;47.50;;;;;;5072104;28;19913;-74
2022/03/03 10:16:59;;;;;;;;;;;18.60;46.10;;;;;;5069306;28;19943;-74
2022/03/03 10:19:25;;;;;;;;;;;19.40;43.50;;;;;;5072739;28;20369;-73
2022/03/03 10:21:50;;;;;;;;;;;18.70;43.90;;;;;;5077649;28;19908;-73
2022/03/03 10:24:19;;;;;;;;;;;19.20;45.10;;;;;;5074081;28;19944;-73
2022/03/03 10:26:46;;;;;;;;;;;19.10;44.10;;;;;;5072329;28;19924;-74
2022/03/03 10:29:19;;;;;;;;;;;20.00;44.10;;;;;;5070411;28;19912;-73
2022/03/03 10:31:48;;;;;;;;;;;20.50;42.10;;;;;;5072302;28;20369;-74
2022/03/03 10:34:30;;;;;;;;;;;20.00;41.70;;;;;;5072342;28;20412;-73
2022/03/03 10:37:07;;;;;;;;;;;19.80;42.30;;;;;;5065289;28;19990;-73
2022/03/03 10:39:41;;;;;;;;;;;20.00;40.30;;;;;;5070383;28;19912;-74
2022/03/03 10:42:14;;;;;;;;;;;20.30;42.50;;;;;;5072539;28;19919;-74
2022/03/03 10:44:40;;;;;;;;;;;20.90;42.60;;;;;;5066105;28;19912;-74
2022/03/03 10:47:13;;;;;;;;;;;20.90;39.90;;;;;;5068968;28;19909;-74
2022/03/03 10:49:39;;;;;;;;;;;19.10;40.90;;;;;;5071126;28;20377;-74
2022/03/03 10:52:09;;;;;;;;;;;18.00;42.30;;;;;;5069626;28;19917;-73
2022/03/03 10:54:51;;;;;;;;;;;19.40;43.40;;;;;;5072207;28;20309;-74
2022/03/03 10:57:29;;;;;;;;;;;19.60;40.50;;;;;;5072621;28;20487;-74
2022/03/03 10:59:56;;;;;;;;;;;20.50;39.10;;;;;;5072698;28;20210;-74
2022/03/03 11:02:22;;;;;;;;;;;20.00;43.00;;;;;;5069398;28;20058;-74
2022/03/03 11:04:47;;;;;;;;;;;21.40;40.50;;;;;;5071852;28;20427;-73
2022/03/03 11:07:15;;;;;;;;;;;20.90;41.00;;;;;;5069754;28;19920;-74
2022/03/03 11:09:41;;;;;;;;;;;18.70;39.50;;;;;;5067876;28;20151;-74
2022/03/03 11:12:08;;;;;;;;;;;18.10;43.40;;;;;;5069819;28;20390;-73
2022/03/03 11:14:34;;;;;;;;;;;19.10;41.30;;;;;;5070146;28;20391;-73
2022/03/03 11:16:59;;;;;;;;;;;20.90;40.10;;;;;;5070922;28;19916;-74
2022/03/03 11:19:25;;;;;;;;;;;21.30;41.50;;;;;;5069160;28;19918;-73
2022/03/03 11:21:51;;;;;;;;;;;20.90;40.90;;;;;;5068018;28;19912;-74
2022/03/03 11:24:17;;;;;;;;;;;21.70;39.40;;;;;;5060224;28;19913;-74
2022/03/03 11:26:44;;;;;;;;;;;20.90;38.90;;;;;;5071008;28;20006;-74
2022/03/03 11:29:11;;;;;;;;;;;20.80;40.90;;;;;;5068126;28;19956;-74
2022/03/03 11:31:37;;;;;;;;;;;21.20;39.80;;;;;;5068787;28;19916;-74
2022/03/03 11:34:18;;;;;;;;;;;21.00;38.30;;;;;;5060753;28;19924;-74
2022/03/03 11:36:44;;;;;;;;;;;20.40;40.00;;;;;;5063168;28;19915;-74
2022/03/03 11:39:10;;;;;;;;;;;20.90;37.90;;;;;;5071668;28;19915;-74
2022/03/03 11:41:45;;;;;;;;;;;20.90;39.20;;;;;;5068138;28;19917;-73
2022/03/03 11:44:14;;;;;;;;;;;20.90;38.80;;;;;;5070342;28;19939;-74
2022/03/03 11:46:51;;;;;;;;;;;20.00;39.30;;;;;;5069146;28;19909;-74
2022/03/03 11:49:24;;;;;;;;;;;21.10;39.40;;;;;;5068869;28;19912;-74
2022/03/03 11:51:50;;;;;;;;;;;20.80;40.30;;;;;;5071959;28;19916;-74
2022/03/03 11:54:23;;;;;;;;;;;21.40;37.20;;;;;;5071940;28;19913;-73
2022/03/03 11:57:03;;;;;;;;;;;18.90;40.00;;;;;;5071591;28;19915;-73
2022/03/03 11:59:33;;;;;;;;;;;14.70;47.90;;;;;;5074167;28;19961;-73
2022/03/03 12:02:00;;;;;;;;;;;12.30;51.80;;;;;;5078173;28;19919;-73
2022/03/03 12:04:26;;;;;;;;;;;11.60;54.60;;;;;;5078358;28;19909;-74
2022/03/03 12:06:54;;;;;;;;;;;10.50;56.30;;;;;;5080325;28;19909;-74
2022/03/03 12:09:28;;;;;;;;;;;10.40;57.70;;;;;;5075546;28;19919;-74
2022/03/03 12:12:09;;;;;;;;;;;10.00;58.40;;;;;;5076210;28;19923;-74
2022/03/03 12:14:35;;;;;;;;;;;10.50;58.40;;;;;;5078269;28;19999;-74
2022/03/03 12:17:20;;;;;;;;;;;10.30;57.70;;;;;;5079514;28;19924;-74
2022/03/03 12:19:45;;;;;;;;;;;10.30;57.10;;;;;;5076807;28;19915;-75
2022/03/03 12:22:22;;;;;;;;;;;10.00;59.40;;;;;;5081546;28;20324;-74
2022/03/03 12:24:48;;;;;;;;;;;9.70;59.70;;;;;;5078845;28;19982;-74
2022/03/03 12:27:15;;;;;;;;;;;9.60;61.60;;;;;;5077923;28;19912;-74
2022/03/03 12:29:41;;;;;;;;;;;9.80;60.00;;;;;;5076558;28;19936;-73
2022/03/03 12:32:26;;;;;;;;;;;9.80;60.30;;;;;;5085472;28;19931;-74
2022/03/03 12:34:55;;;;;;;;;;;9.50;61.00;;;;;;5072125;28;19963;-74
2022/03/03 12:37:21;;;;;;;;;;;9.50;61.70;;;;;;5078849;28;19908;-72
2022/03/03 12:39:48;;;;;;;;;;;9.50;61.00;;;;;;5079293;28;20014;-75
2022/03/03 12:42:17;;;;;;;;;;;9.40;59.60;;;;;;5078105;28;19913;-74
2022/03/03 12:44:42;;;;;;;;;;;9.40;62.00;;;;;;5078328;28;20281;-74
2022/03/03 12:47:08;;;;;;;;;;;9.70;60.00;;;;;;5082506;28;19908;-74
2022/03/03 12:49:38;;;;;;;;;;;9.70;60.60;;;;;;5078039;28;20319;-74
2022/03/03 12:52:04;;;;;;;;;;;9.90;60.10;;;;;;5073719;28;19926;-73
2022/03/03 12:54:30;;;;;;;;;;;9.70;59.50;;;;;;5076573;28;19984;-73
2022/03/03 12:57:00;;;;;;;;;;;9.80;61.70;;;;;;5076355;28;19920;-73
2022/03/03 12:59:25;;;;;;;;;;;9.70;58.90;;;;;;5076782;28;19912;-73
2022/03/03 13:01:50;;;;;;;;;;;9.70;60.30;;;;;;5076611;28;20387;-73
2022/03/03 13:04:20;;;;;;;;;;;9.80;59.60;;;;;;5078098;28;19951;-73
2022/03/03 13:06:45;;;;;;;;;;;9.70;58.70;;;;;;5077130;28;19908;-73
2022/03/03 13:09:12;;;;;;;;;;;9.50;59.60;;;;;;5077838;28;19908;-73
2022/03/03 13:11:37;;;;;;;;;;;9.50;59.70;;;;;;5077628;28;19949;-74
2022/03/03 13:14:06;;;;;;;;;;;9.40;58.50;;;;;;5074974;28;19999;-74
2022/03/03 13:16:35;;;;;;;;;;;9.50;58.80;;;;;;5067101;28;19943;-74
2022/03/03 13:19:01;;;;;;;;;;;9.60;58.60;;;;;;5076246;28;19915;-74
2022/03/03 13:21:28;;;;;;;;;;;9.60;58.20;;;;;;5078433;28;19917;-74
2022/03/03 13:23:57;;;;;;;;;;;9.40;57.10;;;;;;5075212;28;19915;-74
2022/03/03 13:26:23;;;;;;;;;;;9.30;56.50;;;;;;5075253;28;19908;-74
2022/03/03 13:28:53;;;;;;;;;;;9.20;57.20;;;;;;5075025;28;20431;-74
2022/03/03 13:31:19;;;;;;;;;;;9.40;56.70;;;;;;5070078;28;19908;-72
2022/03/03 13:34:03;;;;;;;;;;;9.40;56.00;;;;;;5073045;28;19995;-74
2022/03/03 13:36:38;;;;;;;;;;;9.50;56.80;;;;;;5072995;28;19983;-74
2022/03/03 13:39:05;;;;;;;;;;;9.70;56.10;;;;;;5072893;28;19908;-74
2022/03/03 13:41:34;;;;;;;;;;;9.40;56.30;;;;;;5073521;28;19983;-74
2022/03/03 13:44:08;;;;;;;;;;;9.40;55.80;;;;;;5076877;28;19992;-74
2022/03/03 13:46:34;;;;;;;;;;;9.40;56.20;;;;;;5073923;28;20015;-74
2022/03/03 13:49:00;;;;;;;;;;;9.30;55.70;;;;;;5077133;28;19962;-74
2022/03/03 13:51:25;;;;;;;;;;;9.20;56.50;;;;;;5076725;28;19930;-74
2022/03/03 13:54:02;;;;;;;;;;;9.10;56.40;;;;;;5072688;28;19909;-73
2022/03/03 13:56:29;;;;;;;;;;;9.20;57.00;;;;;;5077498;28;19999;-74
2022/03/03 13:59:08;;;;;;;;;;;9.20;57.80;;;;;;5076228;28;19920;-74
2022/03/03 14:01:33;;;;;;;;;;;9.20;57.10;;;;;;5070812;28;19913;-74
2022/03/03 14:04:12;;;;;;;;;;;9.10;56.80;;;;;;5077247;28;19966;-74
2022/03/03 14:06:38;;;;;;;;;;;9.10;56.40;;;;;;5071487;28;19916;-73
2022/03/03 14:09:04;;;;;;;;;;;9.10;56.10;;;;;;5076194;28;20064;-74
2022/03/03 14:11:29;;;;;;;;;;;9.10;55.60;;;;;;5074838;28;19915;-73
2022/03/03 14:13:56;;;;;;;;;;;9.00;55.70;;;;;;5074628;28;19908;-74
2022/03/03 14:16:26;;;;;;;;;;;9.10;56.90;;;;;;5074611;28;19916;-73
2022/03/03 14:18:52;;;;;;;;;;;9.20;57.40;;;;;;5074476;28;20060;-74
2022/03/03 14:21:18;;;;;;;;;;;8.90;58.00;;;;;;5083122;28;20026;-74